sensor_id;sensor_type;location;lat;lon;timestamp;P1;durP1;ratioP1;P2;durP2;ratioP2
71969;SDS011;59838;52.152;5.436;2022-12-08T00:01:11;2.72;;;1.30;;
71969;SDS011;59838;52.152;5.436;2022-12-08T00:03:39;5.53;;;1.20;;
71969;SDS011;59838;52.152;5.436;2022-12-08T00:06:10;5.32;;;1.23;;
71969;SDS011;59838;52.152;5.436;2022-12-08T00:09:03;3.72;;;1.50;;
71969;SDS011;59838;52.152;5.436;2022-12-08T00:14:18;3.22;;;1.33;;
71969;SDS011;59838;52.152;5.436;2022-12-08T00:16:47;6.27;;;1.80;;
71969;SDS011;59838;52.152;5.436;2022-12-08T00:19:14;4.70;;;1.60;;
71969;SDS011;59838;52.152;5.436;2022-12-08T00:21:41;3.17;;;2.15;;
71969;SDS011;59838;52.152;5.436;2022-12-08T00:24:07;3.17;;;1.70;;
71969;SDS011;59838;52.152;5.436;2022-12-08T00:26:35;2.92;;;2.00;;
71969;SDS011;59838;52.152;5.436;2022-12-08T00:29:01;3.90;;;2.10;;
71969;SDS011;59838;52.152;5.436;2022-12-08T00:31:28;4.78;;;2.08;;
71969;SDS011;59838;52.152;5.436;2022-12-08T00:33:55;3.42;;;2.10;;
71969;SDS011;59838;52.152;5.436;2022-12-08T00:36:21;3.88;;;1.88;;
71969;SDS011;59838;52.152;5.436;2022-12-08T00:38:48;4.43;;;2.17;;
71969;SDS011;59838;52.152;5.436;2022-12-08T00:41:15;4.93;;;1.73;;
71969;SDS011;59838;52.152;5.436;2022-12-08T00:43:43;2.97;;;1.60;;
71969;SDS011;59838;52.152;5.436;2022-12-08T00:46:09;3.72;;;1.65;;
71969;SDS011;59838;52.152;5.436;2022-12-08T00:48:37;3.33;;;2.17;;
71969;SDS011;59838;52.152;5.436;2022-12-08T00:51:04;4.47;;;2.22;;
71969;SDS011;59838;52.152;5.436;2022-12-08T00:53:30;4.23;;;2.20;;
71969;SDS011;59838;52.152;5.436;2022-12-08T00:55:57;4.82;;;2.30;;
71969;SDS011;59838;52.152;5.436;2022-12-08T00:58:23;2.85;;;2.40;;
71969;SDS011;59838;52.152;5.436;2022-12-08T01:00:50;5.35;;;2.70;;
71969;SDS011;59838;52.152;5.436;2022-12-08T01:03:16;2.67;;;2.17;;
71969;SDS011;59838;52.152;5.436;2022-12-08T01:05:43;5.57;;;2.57;;
71969;SDS011;59838;52.152;5.436;2022-12-08T01:08:09;3.50;;;2.28;;
71969;SDS011;59838;52.152;5.436;2022-12-08T01:10:36;5.18;;;2.70;;
71969;SDS011;59838;52.152;5.436;2022-12-08T01:13:04;5.60;;;2.78;;
71969;SDS011;59838;52.152;5.436;2022-12-08T01:15:31;3.22;;;2.30;;
71969;SDS011;59838;52.152;5.436;2022-12-08T01:17:57;3.37;;;2.23;;
71969;SDS011;59838;52.152;5.436;2022-12-08T01:20:24;3.65;;;2.75;;
71969;SDS011;59838;52.152;5.436;2022-12-08T01:22:50;3.95;;;2.90;;
71969;SDS011;59838;52.152;5.436;2022-12-08T01:25:16;6.38;;;2.97;;
71969;SDS011;59838;52.152;5.436;2022-12-08T01:27:43;4.25;;;2.75;;
71969;SDS011;59838;52.152;5.436;2022-12-08T01:30:09;4.60;;;2.80;;
71969;SDS011;59838;52.152;5.436;2022-12-08T01:32:36;5.18;;;2.58;;
71969;SDS011;59838;52.152;5.436;2022-12-08T01:35:02;5.25;;;2.92;;
71969;SDS011;59838;52.152;5.436;2022-12-08T01:37:29;3.50;;;2.42;;
71969;SDS011;59838;52.152;5.436;2022-12-08T01:39:55;3.05;;;2.40;;
71969;SDS011;59838;52.152;5.436;2022-12-08T01:42:22;3.60;;;2.07;;
71969;SDS011;59838;52.152;5.436;2022-12-08T01:44:54;4.47;;;2.45;;
71969;SDS011;59838;52.152;5.436;2022-12-08T01:47:23;5.28;;;2.92;;
71969;SDS011;59838;52.152;5.436;2022-12-08T01:49:54;5.45;;;2.67;;
71969;SDS011;59838;52.152;5.436;2022-12-08T01:52:22;2.17;;;1.95;;
71969;SDS011;59838;52.152;5.436;2022-12-08T01:55:05;2.97;;;1.87;;
71969;SDS011;59838;52.152;5.436;2022-12-08T01:57:42;1.92;;;1.23;;
71969;SDS011;59838;52.152;5.436;2022-12-08T02:00:14;3.95;;;1.35;;
71969;SDS011;59838;52.152;5.436;2022-12-08T02:02:47;2.10;;;1.20;;
71969;SDS011;59838;52.152;5.436;2022-12-08T02:05:18;2.20;;;1.60;;
71969;SDS011;59838;52.152;5.436;2022-12-08T02:07:47;2.60;;;1.20;;
71969;SDS011;59838;52.152;5.436;2022-12-08T02:10:16;1.10;;;0.90;;
71969;SDS011;59838;52.152;5.436;2022-12-08T02:12:45;1.90;;;1.20;;
71969;SDS011;59838;52.152;5.436;2022-12-08T02:15:13;2.33;;;1.02;;
71969;SDS011;59838;52.152;5.436;2022-12-08T02:17:46;4.35;;;1.63;;
71969;SDS011;59838;52.152;5.436;2022-12-08T02:20:29;2.43;;;1.47;;
71969;SDS011;59838;52.152;5.436;2022-12-08T02:23:15;1.98;;;1.40;;
71969;SDS011;59838;52.152;5.436;2022-12-08T02:25:55;1.73;;;1.27;;
71969;SDS011;59838;52.152;5.436;2022-12-08T02:28:37;1.60;;;1.30;;
71969;SDS011;59838;52.152;5.436;2022-12-08T02:34:52;2.53;;;1.73;;
71969;SDS011;59838;52.152;5.436;2022-12-08T02:37:26;2.00;;;1.40;;
71969;SDS011;59838;52.152;5.436;2022-12-08T02:39:58;5.72;;;2.10;;
71969;SDS011;59838;52.152;5.436;2022-12-08T02:47:39;4.63;;;1.87;;
71969;SDS011;59838;52.152;5.436;2022-12-08T02:50:06;6.13;;;2.70;;
71969;SDS011;59838;52.152;5.436;2022-12-08T02:55:01;5.25;;;2.22;;
71969;SDS011;59838;52.152;5.436;2022-12-08T02:58:37;3.25;;;1.98;;
71969;SDS011;59838;52.152;5.436;2022-12-08T03:00:43;2.90;;;1.47;;
71969;SDS011;59838;52.152;5.436;2022-12-08T03:06:24;4.32;;;2.47;;
71969;SDS011;59838;52.152;5.436;2022-12-08T03:09:07;3.97;;;1.85;;
71969;SDS011;59838;52.152;5.436;2022-12-08T03:11:41;3.42;;;1.95;;
71969;SDS011;59838;52.152;5.436;2022-12-08T03:14:14;2.90;;;2.23;;
71969;SDS011;59838;52.152;5.436;2022-12-08T03:16:43;2.65;;;1.85;;
71969;SDS011;59838;52.152;5.436;2022-12-08T03:21:52;4.82;;;2.63;;
71969;SDS011;59838;52.152;5.436;2022-12-08T03:24:31;3.53;;;2.10;;
71969;SDS011;59838;52.152;5.436;2022-12-08T03:27:02;2.87;;;2.00;;
71969;SDS011;59838;52.152;5.436;2022-12-08T03:29:32;6.63;;;2.15;;
71969;SDS011;59838;52.152;5.436;2022-12-08T03:32:05;5.75;;;2.38;;
71969;SDS011;59838;52.152;5.436;2022-12-08T03:34:36;3.58;;;0.85;;
71969;SDS011;59838;52.152;5.436;2022-12-08T03:37:05;2.40;;;1.63;;
71969;SDS011;59838;52.152;5.436;2022-12-08T03:39:32;2.53;;;1.50;;
71969;SDS011;59838;52.152;5.436;2022-12-08T03:41:58;4.07;;;1.45;;
71969;SDS011;59838;52.152;5.436;2022-12-08T03:44:24;2.67;;;1.80;;
71969;SDS011;59838;52.152;5.436;2022-12-08T03:46:51;3.72;;;1.35;;
71969;SDS011;59838;52.152;5.436;2022-12-08T03:49:17;3.33;;;1.45;;
71969;SDS011;59838;52.152;5.436;2022-12-08T03:51:44;3.40;;;0.80;;
71969;SDS011;59838;52.152;5.436;2022-12-08T03:54:10;3.50;;;0.95;;
71969;SDS011;59838;52.152;5.436;2022-12-08T03:56:37;3.97;;;0.75;;
71969;SDS011;59838;52.152;5.436;2022-12-08T03:59:05;3.38;;;0.50;;
71969;SDS011;59838;52.152;5.436;2022-12-08T04:01:32;1.60;;;0.63;;
71969;SDS011;59838;52.152;5.436;2022-12-08T04:03:59;1.10;;;0.60;;
71969;SDS011;59838;52.152;5.436;2022-12-08T04:06:25;2.80;;;0.90;;
71969;SDS011;59838;52.152;5.436;2022-12-08T04:08:52;3.78;;;0.98;;
71969;SDS011;59838;52.152;5.436;2022-12-08T04:11:19;2.00;;;0.50;;
71969;SDS011;59838;52.152;5.436;2022-12-08T04:13:46;2.00;;;0.55;;
71969;SDS011;59838;52.152;5.436;2022-12-08T04:16:18;2.50;;;0.63;;
71969;SDS011;59838;52.152;5.436;2022-12-08T04:18:50;2.22;;;0.57;;
71969;SDS011;59838;52.152;5.436;2022-12-08T04:21:16;0.60;;;0.32;;
71969;SDS011;59838;52.152;5.436;2022-12-08T04:23:43;1.48;;;0.40;;
71969;SDS011;59838;52.152;5.436;2022-12-08T04:26:10;0.88;;;0.32;;
71969;SDS011;59838;52.152;5.436;2022-12-08T04:28:36;1.20;;;0.30;;
71969;SDS011;59838;52.152;5.436;2022-12-08T04:31:03;2.30;;;0.40;;
71969;SDS011;59838;52.152;5.436;2022-12-08T04:33:30;2.97;;;0.30;;
71969;SDS011;59838;52.152;5.436;2022-12-08T04:35:57;1.35;;;0.35;;
71969;SDS011;59838;52.152;5.436;2022-12-08T04:38:23;2.72;;;0.30;;
71969;SDS011;59838;52.152;5.436;2022-12-08T04:40:50;0.50;;;0.20;;
71969;SDS011;59838;52.152;5.436;2022-12-08T04:43:16;3.08;;;0.30;;
71969;SDS011;59838;52.152;5.436;2022-12-08T04:45:42;0.57;;;0.10;;
71969;SDS011;59838;52.152;5.436;2022-12-08T04:48:09;1.85;;;0.30;;
71969;SDS011;59838;52.152;5.436;2022-12-08T04:50:42;2.47;;;0.57;;
71969;SDS011;59838;52.152;5.436;2022-12-08T04:53:10;0.30;;;0.20;;
71969;SDS011;59838;52.152;5.436;2022-12-08T04:55:38;1.50;;;0.40;;
71969;SDS011;59838;52.152;5.436;2022-12-08T04:58:09;2.47;;;0.30;;
71969;SDS011;59838;52.152;5.436;2022-12-08T05:00:37;2.53;;;0.60;;
71969;SDS011;59838;52.152;5.436;2022-12-08T05:03:03;1.45;;;0.40;;
71969;SDS011;59838;52.152;5.436;2022-12-08T05:05:30;3.90;;;0.43;;
71969;SDS011;59838;52.152;5.436;2022-12-08T05:07:56;3.38;;;0.57;;
71969;SDS011;59838;52.152;5.436;2022-12-08T05:10:23;1.05;;;0.40;;
71969;SDS011;59838;52.152;5.436;2022-12-08T05:12:49;3.45;;;0.65;;
71969;SDS011;59838;52.152;5.436;2022-12-08T05:15:16;3.67;;;0.40;;
71969;SDS011;59838;52.152;5.436;2022-12-08T05:17:43;1.13;;;0.40;;
71969;SDS011;59838;52.152;5.436;2022-12-08T05:20:09;1.20;;;0.45;;
71969;SDS011;59838;52.152;5.436;2022-12-08T05:22:36;1.08;;;0.40;;
71969;SDS011;59838;52.152;5.436;2022-12-08T05:25:02;2.33;;;0.50;;
71969;SDS011;59838;52.152;5.436;2022-12-08T05:27:29;1.13;;;0.43;;
71969;SDS011;59838;52.152;5.436;2022-12-08T05:29:55;1.13;;;0.30;;
71969;SDS011;59838;52.152;5.436;2022-12-08T05:32:22;1.73;;;0.40;;
71969;SDS011;59838;52.152;5.436;2022-12-08T05:34:48;1.95;;;0.22;;
71969;SDS011;59838;52.152;5.436;2022-12-08T05:37:15;1.33;;;0.40;;
71969;SDS011;59838;52.152;5.436;2022-12-08T05:39:41;0.43;;;0.20;;
71969;SDS011;59838;52.152;5.436;2022-12-08T05:42:08;0.60;;;0.20;;
71969;SDS011;59838;52.152;5.436;2022-12-08T05:44:34;1.70;;;0.20;;
71969;SDS011;59838;52.152;5.436;2022-12-08T05:47:01;6.25;;;0.50;;
71969;SDS011;59838;52.152;5.436;2022-12-08T05:49:27;1.88;;;0.30;;
71969;SDS011;59838;52.152;5.436;2022-12-08T05:51:54;2.88;;;0.50;;
71969;SDS011;59838;52.152;5.436;2022-12-08T05:54:20;1.33;;;0.20;;
71969;SDS011;59838;52.152;5.436;2022-12-08T05:56:47;2.10;;;0.43;;
71969;SDS011;59838;52.152;5.436;2022-12-08T05:59:14;1.17;;;0.50;;
71969;SDS011;59838;52.152;5.436;2022-12-08T06:01:41;1.83;;;0.43;;
71969;SDS011;59838;52.152;5.436;2022-12-08T06:04:08;0.70;;;0.40;;
71969;SDS011;59838;52.152;5.436;2022-12-08T06:06:35;5.10;;;0.30;;
71969;SDS011;59838;52.152;5.436;2022-12-08T06:09:02;0.55;;;0.20;;
71969;SDS011;59838;52.152;5.436;2022-12-08T06:11:30;0.85;;;0.20;;
71969;SDS011;59838;52.152;5.436;2022-12-08T06:13:57;4.75;;;0.30;;
71969;SDS011;59838;52.152;5.436;2022-12-08T06:16:24;1.77;;;0.20;;
71969;SDS011;59838;52.152;5.436;2022-12-08T06:18:52;2.10;;;0.20;;
71969;SDS011;59838;52.152;5.436;2022-12-08T06:21:18;1.00;;;0.20;;
71969;SDS011;59838;52.152;5.436;2022-12-08T06:23:49;0.43;;;0.28;;
71969;SDS011;59838;52.152;5.436;2022-12-08T06:26:17;3.42;;;0.30;;
71969;SDS011;59838;52.152;5.436;2022-12-08T06:28:45;1.50;;;0.35;;
71969;SDS011;59838;52.152;5.436;2022-12-08T06:31:13;0.73;;;0.20;;
71969;SDS011;59838;52.152;5.436;2022-12-08T06:33:41;1.10;;;0.32;;
71969;SDS011;59838;52.152;5.436;2022-12-08T06:36:09;2.13;;;0.20;;
71969;SDS011;59838;52.152;5.436;2022-12-08T06:38:38;2.45;;;0.40;;
71969;SDS011;59838;52.152;5.436;2022-12-08T06:41:09;1.55;;;0.22;;
71969;SDS011;59838;52.152;5.436;2022-12-08T06:43:36;2.50;;;0.40;;
71969;SDS011;59838;52.152;5.436;2022-12-08T06:46:03;0.68;;;0.20;;
71969;SDS011;59838;52.152;5.436;2022-12-08T06:48:31;2.10;;;0.52;;
71969;SDS011;59838;52.152;5.436;2022-12-08T06:51:04;1.05;;;0.20;;
71969;SDS011;59838;52.152;5.436;2022-12-08T06:53:38;1.83;;;0.20;;
71969;SDS011;59838;52.152;5.436;2022-12-08T06:56:05;0.53;;;0.10;;
71969;SDS011;59838;52.152;5.436;2022-12-08T06:58:32;0.63;;;0.13;;
71969;SDS011;59838;52.152;5.436;2022-12-08T07:01:06;1.13;;;0.20;;
71969;SDS011;59838;52.152;5.436;2022-12-08T07:03:35;1.42;;;0.30;;
71969;SDS011;59838;52.152;5.436;2022-12-08T07:06:02;0.40;;;0.20;;
71969;SDS011;59838;52.152;5.436;2022-12-08T07:08:30;0.53;;;0.20;;
71969;SDS011;59838;52.152;5.436;2022-12-08T07:10:58;1.02;;;0.20;;
71969;SDS011;59838;52.152;5.436;2022-12-08T07:13:24;0.40;;;0.10;;
71969;SDS011;59838;52.152;5.436;2022-12-08T07:15:51;0.65;;;0.20;;
71969;SDS011;59838;52.152;5.436;2022-12-08T07:18:20;0.70;;;0.20;;
71969;SDS011;59838;52.152;5.436;2022-12-08T07:20:46;2.87;;;0.20;;
71969;SDS011;59838;52.152;5.436;2022-12-08T07:23:13;0.98;;;0.20;;
71969;SDS011;59838;52.152;5.436;2022-12-08T07:25:39;1.20;;;0.20;;
71969;SDS011;59838;52.152;5.436;2022-12-08T07:28:06;0.77;;;0.40;;
71969;SDS011;59838;52.152;5.436;2022-12-08T07:30:34;0.80;;;0.30;;
71969;SDS011;59838;52.152;5.436;2022-12-08T07:33:01;1.57;;;0.30;;
71969;SDS011;59838;52.152;5.436;2022-12-08T07:35:29;2.22;;;0.50;;
71969;SDS011;59838;52.152;5.436;2022-12-08T07:37:56;1.15;;;0.52;;
71969;SDS011;59838;52.152;5.436;2022-12-08T07:40:22;1.58;;;0.60;;
71969;SDS011;59838;52.152;5.436;2022-12-08T07:42:49;3.25;;;0.50;;
71969;SDS011;59838;52.152;5.436;2022-12-08T07:45:15;1.60;;;0.80;;
71969;SDS011;59838;52.152;5.436;2022-12-08T07:47:42;1.40;;;0.70;;
71969;SDS011;59838;52.152;5.436;2022-12-08T07:50:08;1.77;;;0.90;;
71969;SDS011;59838;52.152;5.436;2022-12-08T07:52:35;2.08;;;0.80;;
71969;SDS011;59838;52.152;5.436;2022-12-08T07:55:02;1.77;;;0.90;;
71969;SDS011;59838;52.152;5.436;2022-12-08T07:57:28;2.17;;;1.00;;
71969;SDS011;59838;52.152;5.436;2022-12-08T07:59:55;1.95;;;1.05;;
71969;SDS011;59838;52.152;5.436;2022-12-08T08:02:21;3.75;;;1.08;;
71969;SDS011;59838;52.152;5.436;2022-12-08T08:04:51;1.90;;;0.80;;
71969;SDS011;59838;52.152;5.436;2022-12-08T08:07:18;2.85;;;0.75;;
71969;SDS011;59838;52.152;5.436;2022-12-08T08:09:44;2.03;;;0.90;;
71969;SDS011;59838;52.152;5.436;2022-12-08T08:12:11;2.42;;;0.90;;
71969;SDS011;59838;52.152;5.436;2022-12-08T08:14:58;1.52;;;0.65;;
71969;SDS011;59838;52.152;5.436;2022-12-08T08:17:25;2.47;;;0.50;;
71969;SDS011;59838;52.152;5.436;2022-12-08T08:19:52;1.58;;;0.70;;
71969;SDS011;59838;52.152;5.436;2022-12-08T08:22:18;2.97;;;0.80;;
71969;SDS011;59838;52.152;5.436;2022-12-08T08:24:45;3.13;;;0.98;;
71969;SDS011;59838;52.152;5.436;2022-12-08T08:27:11;1.85;;;0.50;;
71969;SDS011;59838;52.152;5.436;2022-12-08T08:29:38;2.20;;;0.95;;
71969;SDS011;59838;52.152;5.436;2022-12-08T08:32:04;2.17;;;0.50;;
71969;SDS011;59838;52.152;5.436;2022-12-08T08:34:31;1.50;;;0.50;;
71969;SDS011;59838;52.152;5.436;2022-12-08T08:36:57;1.65;;;0.45;;
71969;SDS011;59838;52.152;5.436;2022-12-08T08:39:24;1.90;;;0.65;;
71969;SDS011;59838;52.152;5.436;2022-12-08T08:41:50;2.83;;;0.47;;
71969;SDS011;59838;52.152;5.436;2022-12-08T08:44:17;0.98;;;0.40;;
71969;SDS011;59838;52.152;5.436;2022-12-08T08:46:43;2.97;;;0.30;;
71969;SDS011;59838;52.152;5.436;2022-12-08T08:49:10;1.15;;;0.32;;
71969;SDS011;59838;52.152;5.436;2022-12-08T08:51:36;1.30;;;0.20;;
71969;SDS011;59838;52.152;5.436;2022-12-08T08:54:03;2.33;;;0.50;;
71969;SDS011;59838;52.152;5.436;2022-12-08T08:56:29;0.70;;;0.28;;
71969;SDS011;59838;52.152;5.436;2022-12-08T08:58:56;0.53;;;0.20;;
71969;SDS011;59838;52.152;5.436;2022-12-08T09:01:24;2.70;;;0.20;;
71969;SDS011;59838;52.152;5.436;2022-12-08T09:03:53;0.73;;;0.25;;
71969;SDS011;59838;52.152;5.436;2022-12-08T09:06:20;1.23;;;0.35;;
71969;SDS011;59838;52.152;5.436;2022-12-08T09:08:48;0.80;;;0.20;;
71969;SDS011;59838;52.152;5.436;2022-12-08T09:11:16;0.77;;;0.30;;
71969;SDS011;59838;52.152;5.436;2022-12-08T09:13:46;0.52;;;0.30;;
71969;SDS011;59838;52.152;5.436;2022-12-08T09:16:14;0.60;;;0.20;;
71969;SDS011;59838;52.152;5.436;2022-12-08T09:18:42;1.27;;;0.20;;
71969;SDS011;59838;52.152;5.436;2022-12-08T09:21:10;0.40;;;0.20;;
71969;SDS011;59838;52.152;5.436;2022-12-08T09:23:40;0.30;;;0.10;;
71969;SDS011;59838;52.152;5.436;2022-12-08T09:26:06;0.45;;;0.20;;
71969;SDS011;59838;52.152;5.436;2022-12-08T09:28:33;0.30;;;0.20;;
71969;SDS011;59838;52.152;5.436;2022-12-08T09:30:59;0.35;;;0.20;;
71969;SDS011;59838;52.152;5.436;2022-12-08T09:33:26;0.98;;;0.20;;
71969;SDS011;59838;52.152;5.436;2022-12-08T09:35:52;0.60;;;0.20;;
71969;SDS011;59838;52.152;5.436;2022-12-08T09:38:19;1.08;;;0.25;;
71969;SDS011;59838;52.152;5.436;2022-12-08T09:40:49;0.70;;;0.20;;
71969;SDS011;59838;52.152;5.436;2022-12-08T09:43:23;0.43;;;0.20;;
71969;SDS011;59838;52.152;5.436;2022-12-08T09:45:52;3.08;;;0.50;;
71969;SDS011;59838;52.152;5.436;2022-12-08T09:48:41;0.80;;;0.40;;
71969;SDS011;59838;52.152;5.436;2022-12-08T09:51:10;0.60;;;0.20;;
71969;SDS011;59838;52.152;5.436;2022-12-08T09:56:32;2.58;;;0.30;;
71969;SDS011;59838;52.152;5.436;2022-12-08T09:59:03;0.73;;;0.32;;
71969;SDS011;59838;52.152;5.436;2022-12-08T10:01:41;0.70;;;0.30;;
71969;SDS011;59838;52.152;5.436;2022-12-08T10:09:51;0.85;;;0.30;;
71969;SDS011;59838;52.152;5.436;2022-12-08T10:12:30;6.65;;;0.40;;
71969;SDS011;59838;52.152;5.436;2022-12-08T10:15:21;0.70;;;0.20;;
71969;SDS011;59838;52.152;5.436;2022-12-08T10:17:52;1.77;;;0.40;;
71969;SDS011;59838;52.152;5.436;2022-12-08T10:20:22;1.05;;;0.35;;
71969;SDS011;59838;52.152;5.436;2022-12-08T10:23:26;1.65;;;0.40;;
71969;SDS011;59838;52.152;5.436;2022-12-08T10:25:47;1.75;;;0.38;;
71969;SDS011;59838;52.152;5.436;2022-12-08T10:28:15;3.30;;;0.40;;
71969;SDS011;59838;52.152;5.436;2022-12-08T10:30:41;2.13;;;0.20;;
71969;SDS011;59838;52.152;5.436;2022-12-08T10:33:15;1.73;;;0.30;;
71969;SDS011;59838;52.152;5.436;2022-12-08T10:35:46;2.30;;;0.55;;
71969;SDS011;59838;52.152;5.436;2022-12-08T10:38:32;2.15;;;0.50;;
71969;SDS011;59838;52.152;5.436;2022-12-08T10:46:12;0.98;;;0.50;;
71969;SDS011;59838;52.152;5.436;2022-12-08T10:48:54;1.48;;;0.30;;
71969;SDS011;59838;52.152;5.436;2022-12-08T10:51:36;0.70;;;0.28;;
71969;SDS011;59838;52.152;5.436;2022-12-08T10:54:04;0.57;;;0.17;;
71969;SDS011;59838;52.152;5.436;2022-12-08T10:56:52;0.30;;;0.10;;
71969;SDS011;59838;52.152;5.436;2022-12-08T10:59:20;0.80;;;0.20;;
71969;SDS011;59838;52.152;5.436;2022-12-08T11:01:47;0.38;;;0.10;;
71969;SDS011;59838;52.152;5.436;2022-12-08T11:04:17;1.23;;;0.30;;
71969;SDS011;59838;52.152;5.436;2022-12-08T11:06:46;0.60;;;0.10;;
71969;SDS011;59838;52.152;5.436;2022-12-08T11:14:27;2.10;;;0.20;;
71969;SDS011;59838;52.152;5.436;2022-12-08T11:17:01;1.42;;;0.20;;
71969;SDS011;59838;52.152;5.436;2022-12-08T11:19:30;0.40;;;0.20;;
71969;SDS011;59838;52.152;5.436;2022-12-08T11:22:19;2.65;;;0.17;;
71969;SDS011;59838;52.152;5.436;2022-12-08T11:25:19;0.57;;;0.30;;
71969;SDS011;59838;52.152;5.436;2022-12-08T11:27:55;0.60;;;0.38;;
71969;SDS011;59838;52.152;5.436;2022-12-08T11:32:55;0.50;;;0.20;;
71969;SDS011;59838;52.152;5.436;2022-12-08T11:35:39;0.32;;;0.13;;
71969;SDS011;59838;52.152;5.436;2022-12-08T11:38:19;0.22;;;0.10;;
71969;SDS011;59838;52.152;5.436;2022-12-08T11:40:52;0.40;;;0.10;;
71969;SDS011;59838;52.152;5.436;2022-12-08T11:46:24;0.73;;;0.30;;
71969;SDS011;59838;52.152;5.436;2022-12-08T11:49:01;1.05;;;0.20;;
71969;SDS011;59838;52.152;5.436;2022-12-08T11:51:33;1.23;;;0.25;;
71969;SDS011;59838;52.152;5.436;2022-12-08T11:54:14;0.40;;;0.20;;
71969;SDS011;59838;52.152;5.436;2022-12-08T11:56:56;0.35;;;0.15;;
71969;SDS011;59838;52.152;5.436;2022-12-08T12:02:04;1.75;;;0.20;;
71969;SDS011;59838;52.152;5.436;2022-12-08T12:18:01;0.90;;;0.40;;
71969;SDS011;59838;52.152;5.436;2022-12-08T12:20:34;0.80;;;0.40;;
71969;SDS011;59838;52.152;5.436;2022-12-08T12:23:09;1.05;;;0.30;;
71969;SDS011;59838;52.152;5.436;2022-12-08T12:25:54;0.70;;;0.20;;
71969;SDS011;59838;52.152;5.436;2022-12-08T12:28:23;1.60;;;0.32;;
71969;SDS011;59838;52.152;5.436;2022-12-08T12:30:55;0.20;;;0.20;;
71969;SDS011;59838;52.152;5.436;2022-12-08T12:33:26;1.85;;;0.30;;
71969;SDS011;59838;52.152;5.436;2022-12-08T12:35:55;0.50;;;0.20;;
71969;SDS011;59838;52.152;5.436;2022-12-08T12:38:29;0.50;;;0.20;;
71969;SDS011;59838;52.152;5.436;2022-12-08T12:41:22;0.73;;;0.10;;
71969;SDS011;59838;52.152;5.436;2022-12-08T12:44:06;1.00;;;0.13;;
71969;SDS011;59838;52.152;5.436;2022-12-08T12:46:57;0.93;;;0.20;;
71969;SDS011;59838;52.152;5.436;2022-12-08T12:54:43;0.30;;;0.13;;
71969;SDS011;59838;52.152;5.436;2022-12-08T12:57:49;0.68;;;0.20;;
71969;SDS011;59838;52.152;5.436;2022-12-08T13:00:24;0.88;;;0.30;;
71969;SDS011;59838;52.152;5.436;2022-12-08T13:02:53;0.43;;;0.30;;
71969;SDS011;59838;52.152;5.436;2022-12-08T13:05:24;3.50;;;0.40;;
71969;SDS011;59838;52.152;5.436;2022-12-08T13:07:53;0.52;;;0.20;;
71969;SDS011;59838;52.152;5.436;2022-12-08T13:15:27;1.15;;;0.60;;
71969;SDS011;59838;52.152;5.436;2022-12-08T13:18:04;1.00;;;0.40;;
71969;SDS011;59838;52.152;5.436;2022-12-08T13:20:39;1.70;;;0.55;;
71969;SDS011;59838;52.152;5.436;2022-12-08T13:23:22;1.00;;;0.40;;
71969;SDS011;59838;52.152;5.436;2022-12-08T13:26:07;1.67;;;0.40;;
71969;SDS011;59838;52.152;5.436;2022-12-08T13:29:02;1.20;;;0.68;;
71969;SDS011;59838;52.152;5.436;2022-12-08T13:34:06;0.90;;;0.38;;
71969;SDS011;59838;52.152;5.436;2022-12-08T13:36:38;0.75;;;0.30;;
71969;SDS011;59838;52.152;5.436;2022-12-08T13:39:19;0.50;;;0.20;;
71969;SDS011;59838;52.152;5.436;2022-12-08T13:41:56;0.75;;;0.40;;
71969;SDS011;59838;52.152;5.436;2022-12-08T13:44:31;2.53;;;0.20;;
71969;SDS011;59838;52.152;5.436;2022-12-08T13:47:33;0.63;;;0.20;;
71969;SDS011;59838;52.152;5.436;2022-12-08T13:56:12;0.88;;;0.40;;
71969;SDS011;59838;52.152;5.436;2022-12-08T13:59:34;0.70;;;0.27;;
71969;SDS011;59838;52.152;5.436;2022-12-08T14:02:15;1.08;;;0.28;;
71969;SDS011;59838;52.152;5.436;2022-12-08T14:04:43;0.50;;;0.30;;
71969;SDS011;59838;52.152;5.436;2022-12-08T14:07:32;0.60;;;0.30;;
71969;SDS011;59838;52.152;5.436;2022-12-08T14:09:59;0.80;;;0.30;;
71969;SDS011;59838;52.152;5.436;2022-12-08T14:12:28;3.70;;;0.60;;
71969;SDS011;59838;52.152;5.436;2022-12-08T14:14:57;1.38;;;0.38;;
71969;SDS011;59838;52.152;5.436;2022-12-08T14:17:30;1.30;;;0.65;;
71969;SDS011;59838;52.152;5.436;2022-12-08T14:20:02;1.00;;;0.40;;
71969;SDS011;59838;52.152;5.436;2022-12-08T14:22:50;0.88;;;0.38;;
71969;SDS011;59838;52.152;5.436;2022-12-08T14:25:17;1.93;;;0.40;;
71969;SDS011;59838;52.152;5.436;2022-12-08T14:27:44;0.82;;;0.32;;
71969;SDS011;59838;52.152;5.436;2022-12-08T14:32:43;1.15;;;0.45;;
71969;SDS011;59838;52.152;5.436;2022-12-08T14:35:47;0.90;;;0.50;;
71969;SDS011;59838;52.152;5.436;2022-12-08T14:38:05;1.17;;;0.60;;
71969;SDS011;59838;52.152;5.436;2022-12-08T14:40:39;1.42;;;0.50;;
71969;SDS011;59838;52.152;5.436;2022-12-08T14:45:44;1.30;;;0.57;;
71969;SDS011;59838;52.152;5.436;2022-12-08T14:48:24;1.77;;;0.82;;
71969;SDS011;59838;52.152;5.436;2022-12-08T14:51:00;2.47;;;0.80;;
71969;SDS011;59838;52.152;5.436;2022-12-08T14:53:45;1.42;;;1.10;;
71969;SDS011;59838;52.152;5.436;2022-12-08T15:01:34;2.63;;;1.50;;
71969;SDS011;59838;52.152;5.436;2022-12-08T15:04:06;2.73;;;1.60;;
71969;SDS011;59838;52.152;5.436;2022-12-08T15:06:51;3.47;;;1.40;;
71969;SDS011;59838;52.152;5.436;2022-12-08T15:09:28;2.80;;;1.42;;
71969;SDS011;59838;52.152;5.436;2022-12-08T15:12:04;13.65;;;12.50;;
71969;SDS011;59838;52.152;5.436;2022-12-08T15:14:32;3.65;;;2.70;;
71969;SDS011;59838;52.152;5.436;2022-12-08T15:17:01;2.10;;;1.37;;
71969;SDS011;59838;52.152;5.436;2022-12-08T15:19:29;2.45;;;1.60;;
71969;SDS011;59838;52.152;5.436;2022-12-08T15:21:57;2.40;;;1.70;;
71969;SDS011;59838;52.152;5.436;2022-12-08T15:24:34;4.28;;;1.52;;
71969;SDS011;59838;52.152;5.436;2022-12-08T15:27:00;3.28;;;1.65;;
71969;SDS011;59838;52.152;5.436;2022-12-08T15:29:29;3.37;;;2.57;;
71969;SDS011;59838;52.152;5.436;2022-12-08T15:31:57;2.30;;;1.52;;
71969;SDS011;59838;52.152;5.436;2022-12-08T15:34:25;2.15;;;1.40;;
71969;SDS011;59838;52.152;5.436;2022-12-08T15:36:52;2.88;;;1.45;;
71969;SDS011;59838;52.152;5.436;2022-12-08T15:39:23;2.05;;;1.38;;
71969;SDS011;59838;52.152;5.436;2022-12-08T15:41:59;2.17;;;1.67;;
71969;SDS011;59838;52.152;5.436;2022-12-08T15:44:26;2.88;;;1.30;;
71969;SDS011;59838;52.152;5.436;2022-12-08T15:46:54;4.18;;;1.80;;
71969;SDS011;59838;52.152;5.436;2022-12-08T15:49:21;2.67;;;1.58;;
71969;SDS011;59838;52.152;5.436;2022-12-08T15:51:49;3.28;;;1.90;;
71969;SDS011;59838;52.152;5.436;2022-12-08T15:54:25;3.73;;;2.40;;
71969;SDS011;59838;52.152;5.436;2022-12-08T15:56:53;2.70;;;1.80;;
71969;SDS011;59838;52.152;5.436;2022-12-08T15:59:41;4.25;;;1.95;;
71969;SDS011;59838;52.152;5.436;2022-12-08T16:02:09;4.95;;;2.08;;
71969;SDS011;59838;52.152;5.436;2022-12-08T16:04:41;3.03;;;2.25;;
71969;SDS011;59838;52.152;5.436;2022-12-08T16:07:28;1.97;;;1.50;;
71969;SDS011;59838;52.152;5.436;2022-12-08T16:09:55;2.45;;;1.67;;
71969;SDS011;59838;52.152;5.436;2022-12-08T16:12:23;2.47;;;1.75;;
71969;SDS011;59838;52.152;5.436;2022-12-08T16:15:29;3.65;;;2.47;;
71969;SDS011;59838;52.152;5.436;2022-12-08T16:18:26;2.90;;;2.60;;
71969;SDS011;59838;52.152;5.436;2022-12-08T16:20:56;4.40;;;3.27;;
71969;SDS011;59838;52.152;5.436;2022-12-08T16:23:43;3.17;;;1.77;;
71969;SDS011;59838;52.152;5.436;2022-12-08T16:26:15;2.88;;;2.30;;
71969;SDS011;59838;52.152;5.436;2022-12-08T16:29:03;3.67;;;2.63;;
71969;SDS011;59838;52.152;5.436;2022-12-08T16:31:30;4.63;;;2.58;;
71969;SDS011;59838;52.152;5.436;2022-12-08T16:33:57;4.47;;;3.40;;
71969;SDS011;59838;52.152;5.436;2022-12-08T16:36:24;4.38;;;3.38;;
71969;SDS011;59838;52.152;5.436;2022-12-08T16:38:50;3.78;;;3.20;;
71969;SDS011;59838;52.152;5.436;2022-12-08T16:41:17;5.78;;;2.85;;